sensor_id;sensor_type;location;lat;lon;timestamp;pressure;altitude;pressure_sealevel;temperature;humidity
39491;BME280;25175;50.140;18.990;2023-05-18T00:00:56;99089.34;;;9.13;70.19
39491;BME280;25175;50.140;18.990;2023-05-18T00:04:06;99089.53;;;9.12;70.01
39491;BME280;25175;50.140;18.990;2023-05-18T00:07:16;99092.53;;;9.09;70.17
39491;BME280;25175;50.140;18.990;2023-05-18T00:10:22;99093.50;;;9.08;70.14
39491;BME280;25175;50.140;18.990;2023-05-18T00:13:33;99083.50;;;8.97;70.20
39491;BME280;25175;50.140;18.990;2023-05-18T00:16:45;99094.88;;;9.04;70.29
39491;BME280;25175;50.140;18.990;2023-05-18T00:20:12;99092.00;;;8.99;70.18
39491;BME280;25175;50.140;18.990;2023-05-18T00:23:19;99095.34;;;8.93;70.05
39491;BME280;25175;50.140;18.990;2023-05-18T00:26:28;99081.78;;;8.75;69.68
39491;BME280;25175;50.140;18.990;2023-05-18T00:29:34;99095.69;;;8.75;69.90
39491;BME280;25175;50.140;18.990;2023-05-18T00:32:39;99083.34;;;8.69;70.15
39491;BME280;25175;50.140;18.990;2023-05-18T00:35:52;99083.25;;;8.63;70.21
39491;BME280;25175;50.140;18.990;2023-05-18T00:38:58;99085.25;;;8.61;70.50
39491;BME280;25175;50.140;18.990;2023-05-18T00:42:05;99087.72;;;8.54;70.45
39491;BME280;25175;50.140;18.990;2023-05-18T00:49:07;99070.75;;;8.36;70.87
39491;BME280;25175;50.140;18.990;2023-05-18T05:07:58;99237.25;;;7.98;70.28
39491;BME280;25175;50.140;18.990;2023-05-18T05:11:08;99252.06;;;8.06;69.94
39491;BME280;25175;50.140;18.990;2023-05-18T05:14:16;99254.84;;;8.04;69.96
39491;BME280;25175;50.140;18.990;2023-05-18T05:17:24;99262.53;;;8.06;70.00
39491;BME280;25175;50.140;18.990;2023-05-18T05:24:14;99262.13;;;8.17;70.24
39491;BME280;25175;50.140;18.990;2023-05-18T05:27:20;99263.41;;;8.21;69.83
39491;BME280;25175;50.140;18.990;2023-05-18T05:30:31;99268.97;;;8.18;69.36
39491;BME280;25175;50.140;18.990;2023-05-18T05:33:36;99271.25;;;8.21;69.77
39491;BME280;25175;50.140;18.990;2023-05-18T05:36:43;99268.81;;;8.19;69.64
39491;BME280;25175;50.140;18.990;2023-05-18T05:39:52;99279.91;;;8.21;69.33
39491;BME280;25175;50.140;18.990;2023-05-18T05:42:59;99273.22;;;8.19;69.00
39491;BME280;25175;50.140;18.990;2023-05-18T05:46:05;99278.09;;;8.22;69.59
39491;BME280;25175;50.140;18.990;2023-05-18T05:49:11;99286.59;;;8.24;69.45
39491;BME280;25175;50.140;18.990;2023-05-18T05:52:41;99213.28;;;7.64;68.87
39491;BME280;25175;50.140;18.990;2023-05-18T05:55:49;99281.97;;;8.26;69.41
39491;BME280;25175;50.140;18.990;2023-05-18T05:58:56;99271.81;;;8.31;69.82
39491;BME280;25175;50.140;18.990;2023-05-18T06:06:34;99289.38;;;8.45;69.03
39491;BME280;25175;50.140;18.990;2023-05-18T06:09:45;99301.47;;;8.46;69.12
39491;BME280;25175;50.140;18.990;2023-05-18T06:12:55;99292.91;;;8.52;68.99
39491;BME280;25175;50.140;18.990;2023-05-18T06:16:12;99291.91;;;8.61;68.51
39491;BME280;25175;50.140;18.990;2023-05-18T06:19:21;99308.22;;;8.63;68.30
39491;BME280;25175;50.140;18.990;2023-05-18T06:22:30;99280.16;;;8.57;67.67
39491;BME280;25175;50.140;18.990;2023-05-18T06:26:08;99297.31;;;8.59;66.68
39491;BME280;25175;50.140;18.990;2023-05-18T13:00:30;99393.41;;;11.12;62.28
39491;BME280;25175;50.140;18.990;2023-05-18T13:03:39;99413.13;;;11.22;62.36
39491;BME280;25175;50.140;18.990;2023-05-18T13:06:46;99411.13;;;11.24;62.25
39491;BME280;25175;50.140;18.990;2023-05-18T13:09:53;99405.69;;;11.26;62.83
39491;BME280;25175;50.140;18.990;2023-05-18T13:13:03;99402.66;;;11.29;63.63
39491;BME280;25175;50.140;18.990;2023-05-18T13:19:56;99406.78;;;11.38;63.23
39491;BME280;25175;50.140;18.990;2023-05-18T13:23:03;99367.22;;;11.18;63.00
39491;BME280;25175;50.140;18.990;2023-05-18T13:26:25;99405.16;;;11.37;63.72
39491;BME280;25175;50.140;18.990;2023-05-18T13:29:46;99399.28;;;11.35;63.62
39491;BME280;25175;50.140;18.990;2023-05-18T13:33:10;99401.28;;;11.33;63.77
39491;BME280;25175;50.140;18.990;2023-05-18T13:36:30;99404.66;;;11.27;62.63
39491;BME280;25175;50.140;18.990;2023-05-18T13:39:54;99400.78;;;11.23;64.23
39491;BME280;25175;50.140;18.990;2023-05-18T13:43:20;99397.72;;;11.19;63.68
39491;BME280;25175;50.140;18.990;2023-05-18T13:46:40;99407.00;;;11.15;63.48
39491;BME280;25175;50.140;18.990;2023-05-18T13:50:05;99384.56;;;11.13;63.89
39491;BME280;25175;50.140;18.990;2023-05-18T13:53:26;99389.59;;;11.14;64.61
39491;BME280;25175;50.140;18.990;2023-05-18T13:56:47;99395.09;;;11.19;65.38
39491;BME280;25175;50.140;18.990;2023-05-18T14:00:10;99376.28;;;11.16;65.10
39491;BME280;25175;50.140;18.990;2023-05-18T14:03:28;99391.94;;;11.24;64.57
39491;BME280;25175;50.140;18.990;2023-05-18T14:06:38;99394.00;;;11.07;64.18
39491;BME280;25175;50.140;18.990;2023-05-18T14:09:46;99382.22;;;11.03;65.25
39491;BME280;25175;50.140;18.990;2023-05-18T14:12:51;99390.88;;;10.97;64.32
39491;BME280;25175;50.140;18.990;2023-05-18T14:16:01;99385.19;;;10.94;65.35
39491;BME280;25175;50.140;18.990;2023-05-18T14:19:12;99383.91;;;10.90;64.84
39491;BME280;25175;50.140;18.990;2023-05-18T14:22:21;99386.66;;;10.82;65.50
39491;BME280;25175;50.140;18.990;2023-05-18T14:25:28;99388.28;;;10.83;65.35
39491;BME280;25175;50.140;18.990;2023-05-18T14:28:41;99383.41;;;10.80;64.86
39491;BME280;25175;50.140;18.990;2023-05-18T14:31:46;99384.38;;;10.79;65.18
39491;BME280;25175;50.140;18.990;2023-05-18T14:34:56;99385.84;;;10.81;65.79
39491;BME280;25175;50.140;18.990;2023-05-18T14:38:03;99370.28;;;10.80;64.64
39491;BME280;25175;50.140;18.990;2023-05-18T14:41:11;99377.69;;;10.76;65.16
39491;BME280;25175;50.140;18.990;2023-05-18T14:44:17;99373.84;;;10.72;65.24
39491;BME280;25175;50.140;18.990;2023-05-18T14:47:23;99386.16;;;10.72;64.85
39491;BME280;25175;50.140;18.990;2023-05-18T14:50:44;99382.91;;;10.70;64.50
39491;BME280;25175;50.140;18.990;2023-05-18T14:54:07;99389.16;;;10.69;65.36
39491;BME280;25175;50.140;18.990;2023-05-18T14:57:29;99382.91;;;10.70;64.27
39491;BME280;25175;50.140;18.990;2023-05-18T15:00:50;99398.66;;;10.70;63.99
39491;BME280;25175;50.140;18.990;2023-05-18T20:21:00;99450.19;;;9.10;61.61
39491;BME280;25175;50.140;18.990;2023-05-18T20:24:21;99516.25;;;9.20;61.80
39491;BME280;25175;50.140;18.990;2023-05-18T20:27:41;99467.94;;;9.22;61.40
39491;BME280;25175;50.140;18.990;2023-05-18T20:31:05;99457.28;;;9.24;61.71
39491;BME280;25175;50.140;18.990;2023-05-18T20:34:26;99449.50;;;9.16;61.58
39491;BME280;25175;50.140;18.990;2023-05-18T20:37:54;99462.88;;;9.21;61.54
39491;BME280;25175;50.140;18.990;2023-05-18T20:41:19;99476.78;;;9.21;61.82
39491;BME280;25175;50.140;18.990;2023-05-18T20:44:39;99460.97;;;9.15;61.91
39491;BME280;25175;50.140;18.990;2023-05-18T20:48:00;99470.03;;;9.27;61.70
39491;BME280;25175;50.140;18.990;2023-05-18T20:51:10;99472.81;;;9.25;61.80
39491;BME280;25175;50.140;18.990;2023-05-18T20:54:28;99472.81;;;9.25;61.87
39491;BME280;25175;50.140;18.990;2023-05-18T20:57:37;99452.13;;;9.16;62.18
39491;BME280;25175;50.140;18.990;2023-05-18T21:00:46;99473.66;;;9.26;61.82
39491;BME280;25175;50.140;18.990;2023-05-18T21:03:52;99460.19;;;9.29;62.40
39491;BME280;25175;50.140;18.990;2023-05-18T21:06:59;99461.03;;;9.29;62.35
39491;BME280;25175;50.140;18.990;2023-05-18T21:10:23;99465.44;;;9.29;62.09
39491;BME280;25175;50.140;18.990;2023-05-18T21:13:43;99474.75;;;9.31;62.14
39491;BME280;25175;50.140;18.990;2023-05-18T21:17:04;99474.28;;;9.28;62.12
39491;BME280;25175;50.140;18.990;2023-05-18T21:20:30;99469.03;;;9.28;61.89
39491;BME280;25175;50.140;18.990;2023-05-18T21:23:51;99464.97;;;9.25;62.18
39491;BME280;25175;50.140;18.990;2023-05-18T21:27:11;99464.97;;;9.25;62.40
39491;BME280;25175;50.140;18.990;2023-05-18T21:30:17;99435.34;;;8.80;62.52
39491;BME280;25175;50.140;18.990;2023-05-18T21:33:32;99466.97;;;9.23;62.57
39491;BME280;25175;50.140;18.990;2023-05-18T21:36:37;99461.44;;;9.18;62.79
39491;BME280;25175;50.140;18.990;2023-05-18T21:39:43;99473.16;;;9.22;63.11
39491;BME280;25175;50.140;18.990;2023-05-18T21:42:51;99139.09;;;7.20;63.23
39491;BME280;25175;50.140;18.990;2023-05-18T21:45:59;99473.81;;;9.24;63.48
39491;BME280;25175;50.140;18.990;2023-05-18T21:49:07;99438.59;;;9.04;63.87
39491;BME280;25175;50.140;18.990;2023-05-18T21:52:13;99471.84;;;9.26;63.59
39491;BME280;25175;50.140;18.990;2023-05-18T21:55:19;99469.22;;;9.26;63.64
39491;BME280;25175;50.140;18.990;2023-05-18T21:58:30;99470.03;;;9.27;64.11
39491;BME280;25175;50.140;18.990;2023-05-18T22:01:35;99471.66;;;9.28;63.81
39491;BME280;25175;50.140;18.990;2023-05-18T22:04:41;99461.34;;;9.26;63.76
39491;BME280;25175;50.140;18.990;2023-05-18T22:07:47;99477.25;;;9.25;63.75
39491;BME280;25175;50.140;18.990;2023-05-18T22:10:59;99464.34;;;9.23;64.02
39491;BME280;25175;50.140;18.990;2023-05-18T22:17:45;99472.66;;;9.27;64.47
39491;BME280;25175;50.140;18.990;2023-05-18T22:20:50;99463.97;;;9.26;64.36
39491;BME280;25175;50.140;18.990;2023-05-18T22:23:57;99471.03;;;9.26;64.55
39491;BME280;25175;50.140;18.990;2023-05-18T22:27:05;99469.03;;;9.28;64.73
39491;BME280;25175;50.140;18.990;2023-05-18T22:34:06;99460.19;;;9.29;64.96
39491;BME280;25175;50.140;18.990;2023-05-18T22:37:26;99449.78;;;9.21;64.51
39491;BME280;25175;50.140;18.990;2023-05-18T22:40:47;99456.28;;;9.25;64.89
39491;BME280;25175;50.140;18.990;2023-05-18T22:44:09;99456.28;;;9.25;65.09
39491;BME280;25175;50.140;18.990;2023-05-18T22:47:29;99439.66;;;9.18;65.06
39491;BME280;25175;50.140;18.990;2023-05-18T22:51:00;99454.50;;;9.25;65.15
39491;BME280;25175;50.140;18.990;2023-05-18T22:54:21;99455.50;;;9.24;65.46
39491;BME280;25175;50.140;18.990;2023-05-18T22:57:43;99461.88;;;8.99;65.18
39491;BME280;25175;50.140;18.990;2023-05-18T23:01:05;99461.25;;;9.20;65.27
39491;BME280;25175;50.140;18.990;2023-05-18T23:04:25;99453.22;;;9.21;65.45
39491;BME280;25175;50.140;18.990;2023-05-18T23:07:51;99450.13;;;9.18;65.32
39491;BME280;25175;50.140;18.990;2023-05-18T23:11:13;99448.69;;;9.15;65.38
39491;BME280;25175;50.140;18.990;2023-05-18T23:14:35;99443.59;;;9.14;65.76
39491;BME280;25175;50.140;18.990;2023-05-18T23:17:55;99418.53;;;8.97;66.18
39491;BME280;25175;50.140;18.990;2023-05-18T23:21:15;99442.50;;;9.08;66.15
39491;BME280;25175;50.140;18.990;2023-05-18T23:24:49;99447.28;;;9.05;66.70
39491;BME280;25175;50.140;18.990;2023-05-18T23:28:17;99458.09;;;9.02;66.60
39491;BME280;25175;50.140;18.990;2023-05-18T23:31:39;99450.16;;;8.95;67.00
39491;BME280;25175;50.140;18.990;2023-05-18T23:35:00;99447.03;;;8.92;67.06
39491;BME280;25175;50.140;18.990;2023-05-18T23:38:27;99447.41;;;8.89;67.41
39491;BME280;25175;50.140;18.990;2023-05-18T23:41:58;99440.56;;;8.80;67.42
39491;BME280;25175;50.140;18.990;2023-05-18T23:45:41;99092.03;;;6.51;67.65
39491;BME280;25175;50.140;18.990;2023-05-18T23:49:02;99439.88;;;8.55;68.26
39491;BME280;25175;50.140;18.990;2023-05-18T23:52:38;99438.41;;;8.53;68.93
39491;BME280;25175;50.140;18.990;2023-05-18T23:56:04;99433.22;;;8.45;68.55
39491;BME280;25175;50.140;18.990;2023-05-18T23:59:31;99446.09;;;8.54;68.56
